Ashwaubenon, Wisconsin
Current Conditions -  °F | °C
As of 11:53 AM on Monday 22 Dec 2014 (Local Time) from KGRB Reporting Station
Haze Haze  
Wind Chill: 30°   Ceiling: 1300
Heat Index: 37°   Visibility: 4mi
Dew Point: 33°   Wind: 10mph
Humidity: 86%   Direction: 140°SE
Pressure: 29.85"   Gusts: NA
Location:  44.48°N, 88.07°W
Report Text: KGRB 221753Z 14009KT 4SM BR BKN013 OVC080 03/01 A2985 RMK AO2 SLP113 60003 T00280006 10028 20011 58018
Loading
Personal Weather Stations






























Interactive Weather Map New forecast layout! Learn more

10-Day Weather Forecast

Advertisements
Track Severe Weather on mobile